»·PEaware :: N594BT KBOI-KPDX

N594BT :: KBOI-KPDX

FLIGHT INFORMATION

Flight Status: Arrived
Operator: Privately registered:
United States
More flights under this callsign
Pilot: Austin L. (18920)
Aircraft: SOCATA TBM-900
(TBM9)
More flights by this aircraft type
Origin: KBOI Boise Air Terminal/Gowen
United States
Destination: KPDX Portland Intl
United States
More flights between these airports :: More routes between these airports
Route: +BOI3 SAILL BUEEL IMB JOTBA HHOOD4
File this flight plan on PilotEdge
Remarks:
Altitude:
(Current/Filed)
30,000ft
Speed:
(Current/Filed)
300kts
Departed: 14-Mar-19 06:04 PM
Arrived: 14-Mar-19 07:31 PM
Distance/Time
Traveled:
298nm/1:27
Distance/Time
To Go:
Arrived

Flight Plot

Page will automatically refresh every two minutes.

Flight plan parsing failed; only flown route is shown


Map Options




Map Legend


Flown Route
Filed Route
Departure Airport
Arrival Airport
Navaid (VOR, NDB)
Fix

Horizontal Profiles

Position Reports

Time Latitude Longitude Heading Altitude Ground
Speed
14-Mar-19 17:36 43.562236 -116.206292 270 2874ft 0kts
14-Mar-19 17:37 43.562236 -116.206292 270 2874ft 0kts
14-Mar-19 17:38 43.562236 -116.206292 270 2874ft 0kts
14-Mar-19 17:39 43.562236 -116.206292 270 2874ft 0kts
14-Mar-19 17:40 43.562236 -116.206292 270 2874ft 0kts
14-Mar-19 17:41 43.562236 -116.206292 270 2874ft 0kts
14-Mar-19 17:42 43.562236 -116.206292 270 2874ft 0kts
14-Mar-19 17:43 43.562236 -116.206292 270 2874ft 0kts
14-Mar-19 17:44 43.562236 -116.206292 270 2874ft 0kts
14-Mar-19 17:45 43.562236 -116.206292 270 2874ft 0kts
14-Mar-19 17:46 43.562236 -116.206292 270 2874ft 0kts
14-Mar-19 17:47 43.562236 -116.206292 270 2874ft 0kts
14-Mar-19 17:48 43.562236 -116.206292 270 2874ft 0kts
14-Mar-19 17:49 43.562236 -116.206292 270 2874ft 0kts
14-Mar-19 17:50 43.562236 -116.206292 270 2874ft 0kts
14-Mar-19 17:51 43.562236 -116.206292 270 2874ft 0kts
14-Mar-19 17:52 43.562236 -116.206292 270 2874ft 0kts
14-Mar-19 17:53 43.562236 -116.206292 270 2874ft 0kts
14-Mar-19 17:54 43.562236 -116.206292 270 2874ft 0kts
14-Mar-19 17:55 43.562236 -116.206292 270 2874ft 0kts
14-Mar-19 17:56 43.562244 -116.206513 273 2874ft 4kts
14-Mar-19 17:57 43.561569 -116.206185 197 2874ft 5kts
14-Mar-19 17:58 43.561376 -116.206263 196 2874ft 0kts
14-Mar-19 17:59 43.560525 -116.204981 116 2874ft 8kts
14-Mar-19 18:00 43.559648 -116.202560 141 2874ft 5kts
14-Mar-19 18:01 43.559342 -116.202419 193 2874ft 0kts
14-Mar-19 18:02 43.559010 -116.204070 294 2874ft 18kts
14-Mar-19 18:03 43.570655 -116.236852 295 3768ft 125kts
14-Mar-19 18:04 43.584770 -116.289224 291 5053ft 153kts
14-Mar-19 18:05 43.602390 -116.350244 291 6303ft 182kts
14-Mar-19 18:06 43.620632 -116.413160 291 7817ft 181kts
14-Mar-19 18:07 43.633026 -116.479355 281 9398ft 176kts
14-Mar-19 18:08 43.642537 -116.543814 283 10975ft 166kts
14-Mar-19 18:09 43.651423 -116.604288 285 12533ft 155kts
14-Mar-19 18:10 43.660381 -116.665343 284 14179ft 172kts
14-Mar-19 18:11 43.670100 -116.732085 284 15811ft 182kts
14-Mar-19 18:12 43.680423 -116.803285 284 17451ft 197kts
14-Mar-19 18:13 43.691331 -116.878977 284 19071ft 203kts
14-Mar-19 18:14 43.702277 -116.955321 283 20661ft 202kts
14-Mar-19 18:15 43.713008 -117.030543 283 22235ft 197kts
14-Mar-19 18:16 43.723486 -117.103107 289 23789ft 188kts
14-Mar-19 18:17 43.743674 -117.167573 294 25343ft 178kts
14-Mar-19 18:18 43.762750 -117.228157 293 26878ft 165kts
14-Mar-19 18:19 43.779916 -117.282978 292 28366ft 145kts
14-Mar-19 18:20 43.795425 -117.332579 292 29433ft 152kts
14-Mar-19 18:21 43.814375 -117.392604 293 30187ft 186kts
14-Mar-19 18:22 43.837021 -117.464903 293 30464ft 224kts
14-Mar-19 18:23 43.863384 -117.549552 293 30454ft 250kts
14-Mar-19 18:24 43.894020 -117.639058 296 30448ft 262kts
14-Mar-19 18:25 43.928304 -117.729981 296 30451ft 268kts
14-Mar-19 18:26 43.962989 -117.822243 296 30449ft 271kts
14-Mar-19 18:27 43.997840 -117.915266 296 30427ft 272kts
14-Mar-19 18:28 44.032895 -118.009141 296 30394ft 273kts
14-Mar-19 18:29 44.067856 -118.103079 296 30364ft 273kts
14-Mar-19 18:30 44.102583 -118.196703 296 30364ft 272kts
14-Mar-19 18:31 44.137374 -118.290812 296 30365ft 272kts
14-Mar-19 18:32 44.171939 -118.384628 296 30364ft 272kts
14-Mar-19 18:33 44.206359 -118.478373 296 30363ft 271kts
14-Mar-19 18:34 44.240726 -118.572278 295 30363ft 271kts
14-Mar-19 18:35 44.274671 -118.665385 295 30368ft 271kts
14-Mar-19 18:36 44.308017 -118.757118 295 30368ft 272kts
14-Mar-19 18:37 44.343105 -118.853975 294 30370ft 272kts
14-Mar-19 18:38 44.377184 -118.948396 294 30377ft 272kts
14-Mar-19 18:39 44.411093 -119.042661 294 30380ft 271kts
14-Mar-19 18:40 44.445016 -119.137298 294 30381ft 271kts
14-Mar-19 18:41 44.478946 -119.232267 294 30382ft 270kts
14-Mar-19 18:42 44.512296 -119.325953 294 30380ft 266kts
14-Mar-19 18:43 44.545072 -119.418319 294 30380ft 264kts
14-Mar-19 18:44 44.577718 -119.510663 294 30380ft 263kts
14-Mar-19 18:45 44.608565 -119.598194 294 30380ft 263kts
14-Mar-19 18:46 44.640566 -119.689306 293 30387ft 263kts
14-Mar-19 18:47 44.686344 -119.769964 308 30386ft 267kts
14-Mar-19 18:48 44.736502 -119.847366 308 30385ft 267kts
14-Mar-19 18:49 44.786412 -119.924554 308 30298ft 266kts
14-Mar-19 18:50 44.837785 -120.004267 308 29417ft 281kts
14-Mar-19 18:51 44.891105 -120.087190 308 28511ft 288kts
14-Mar-19 18:52 44.945002 -120.171283 308 27596ft 291kts
14-Mar-19 18:53 44.999085 -120.255891 308 26683ft 292kts
14-Mar-19 18:54 45.054001 -120.342104 308 25757ft 293kts
14-Mar-19 18:55 45.108643 -120.428133 308 24867ft 292kts
14-Mar-19 18:56 45.162401 -120.513012 308 24420ft 280kts
14-Mar-19 18:57 45.201527 -120.609692 296 23323ft 292kts
14-Mar-19 18:58 45.239988 -120.708928 295 22225ft 295kts
14-Mar-19 18:59 45.279856 -120.813193 295 20634ft 301kts
14-Mar-19 19:00 45.319387 -120.916464 295 19279ft 292kts
14-Mar-19 19:01 45.358124 -121.018044 295 17918ft 292kts
14-Mar-19 19:02 45.395984 -121.117616 295 17032ft 281kts
14-Mar-19 19:03 45.430497 -121.212853 283 17026ft 265kts
14-Mar-19 19:05 45.450392 -121.313421 283 17043ft 262kts
14-Mar-19 19:06 45.470072 -121.413336 283 17043ft 261kts
14-Mar-19 19:07 45.489808 -121.513060 283 16973ft 263kts
14-Mar-19 19:08 45.510576 -121.618611 284 15655ft 281kts
14-Mar-19 19:09 45.529880 -121.725289 271 15021ft 258kts
14-Mar-19 19:10 45.533478 -121.824901 272 14153ft 249kts
14-Mar-19 19:11 45.536903 -121.921628 272 13146ft 240kts
14-Mar-19 19:12 45.549166 -122.009991 285 13023ft 217kts
14-Mar-19 19:13 45.565985 -122.090415 284 13012ft 208kts
14-Mar-19 19:14 45.583457 -122.174383 285 12117ft 233kts
14-Mar-19 19:15 45.601881 -122.263200 285 11022ft 228kts
14-Mar-19 19:16 45.618508 -122.343777 284 10305ft 203kts
14-Mar-19 19:17 45.633896 -122.418611 284 9098ft 197kts
14-Mar-19 19:18 45.652951 -122.490770 295 7973ft 170kts
14-Mar-19 19:19 45.676022 -122.555067 296 6281ft 196kts
14-Mar-19 19:20 45.701342 -122.625337 297 4975ft 178kts
14-Mar-19 19:21 45.721825 -122.681905 295 4910ft 150kts
14-Mar-19 19:22 45.737719 -122.737434 253 4920ft 162kts
14-Mar-19 19:23 45.703170 -122.778484 214 3800ft 154kts
14-Mar-19 19:23 45.676083 -122.783542 125 2950ft 108kts
14-Mar-19 19:25 45.656628 -122.747521 136 2956ft 122kts
14-Mar-19 19:26 45.639231 -122.709874 118 2465ft 99kts
14-Mar-19 19:26 45.628146 -122.681666 118 1587ft 95kts
14-Mar-19 19:27 45.615180 -122.648201 121 898ft 97kts
14-Mar-19 19:29 45.600289 -122.609571 120 302ft 86kts
14-Mar-19 19:29 45.591545 -122.587223 122 26ft 53kts
14-Mar-19 19:30 45.586800 -122.582418 166 26ft 17kts
14-Mar-19 19:31 45.586226 -122.583068 32 26ft 0kts

Navigation Log

Ident Type
Flight plan parsing failed, navigation log unavailable